Thursday, November 15, 2018, 8:13 PM EST
Back to Local

KFRG, Farmingdale Republic Airport

Location: Farmingdale, NY, United States Lat: 40.733
Local Time: 8:13 PM EST ( 1:13 GMT) Lon: -73.417
Time Zone: US/Eastern Elev: 82 ft

Show me the last for .
Show Decoded

2018-11-15 19:53 METAR KFRG 160053Z 06012G22KT 3SM -RA BR BKN007 OVC046 01/00 A3013 RMK AO2
                 RAB11E29B51SNE11B29E51 SLP203 P0005 T00060000 =
2018-11-15 19:23 METAR KFRG 160023Z 05012KT 3SM RA BR BKN007 OVC031 01/00 A3018 RMK AO2
                 RAB11SNE11 P0003 T00060000 =
2018-11-15 18:53 METAR KFRG 152353Z 05009KT 2SM -SN BR OVC005 01/00 A3022 RMK AO2 SLP232 P0007
                 60047 T00060000 10011 21006 55019 =
2018-11-15 18:49 METAR KFRG 152349Z 05009KT 1 3/4SM -SN BR OVC005 01/00 A3021 RMK AO2 P0006 =
2018-11-15 18:38 METAR KFRG 152338Z 06008KT 2 1/2SM -SN BR BKN005 OVC009 01/00 A3021 RMK AO2
                 P0006 T00060000 =
2018-11-15 17:53 METAR KFRG 152253Z 07012KT 1 1/2SM -SN BR SCT004 OVC009 01/00 A3022 RMK AO2
                 PRESFR SLP232 P0012 T00060000 =
2018-11-15 17:37 METAR KFRG 152237Z 05009KT 1SM -SN BR VV006 01/00 A3024 RMK AO2 P0009 T00060000
                 =
2018-11-15 17:25 METAR KFRG 152225Z 06012KT 3/4SM -SN BR VV006 01/00 A3025 RMK AO2 P0006
                 T00060000 =
2018-11-15 17:09 METAR KFRG 152209Z 06011G18KT 1SM -SN BR VV006 01/00 A3026 RMK AO2 P0002
                 T00060000 =
2018-11-15 16:53 METAR KFRG 152153Z 06010KT 3/4SM -SN BR VV005 00/00 A3027 RMK AO2 PRESFR SLP251
                 P0015 T00000000 =
2018-11-15 16:31 METAR KFRG 152131Z 06009KT 1/2SM SN FG VV005 00/00 A3030 RMK AO2 P0009 T00000000
                 =
2018-11-15 15:53 METAR KFRG 152053Z 05009KT 1/4SM +SN FG VV006 00/M01 A3030 RMK AO2 SLP262 P0009
                 60013 T00001006 56044 =
2018-11-15 15:10 METAR KFRG 152010Z 06010KT 1/4SM SN FZFG VV008 M01/M01 A3030 RMK AO2 P0002
                 T10061011 =
2018-11-15 14:53 METAR KFRG 151953Z 06011KT 1/2SM SN FZFG VV009 M01/M02 A3032 RMK AO2 SLP267
                 P0004 T10061017 =
2018-11-15 14:37 METAR KFRG 151937Z 06010KT 1/4SM +SN FZFG VV009 M01/M02 A3033 RMK AO2 PRESFR
                 P0002 T10061017 =
2018-11-15 14:25 METAR KFRG 151925Z 06010KT 1/2SM SN FZFG VV013 M01/M03 A3035 RMK AO2 TWR VIS 1
                 3/4 PRESFR P0001 T10061028 =
2018-11-15 14:17 METAR KFRG 151917Z 07008KT 1/2SM SN VV015 00/M03 A3038 RMK AO2 TWR VIS 1 3/4
                 P0000 T00001028 =
2018-11-15 13:53 METAR KFRG 151853Z 06007KT 1 3/4SM -SN OVC029 01/M04 A3041 RMK AO2 SFC VIS 5
                 SNB50 SLP296 P0000 T00111044 =
2018-11-15 13:50 METAR KFRG 151850Z 05010G17KT 1 3/4SM -SN OVC029 01/M04 A3041 RMK AO2 SFC VIS 8
                 SNB50 P0000 =
2018-11-15 12:53 METAR KFRG 151753Z 05009KT 10SM OVC037 01/M06 A3043 RMK AO2 SLP306 T00111056
                 10011 21011 56041 =
2018-11-15 11:53 METAR KFRG 151653Z 06009KT 10SM OVC037 01/M07 A3046 RMK AO2 SLP316 T00111067 =
2018-11-15 10:53 METAR KFRG 151553Z 06009KT 10SM BKN035 01/M08 A3050 RMK AO2 SLP329 T00061083 =
2018-11-15 09:53 METAR KFRG 151453Z 06007KT 10SM SCT035 01/M08 A3056 RMK AO2 SLP347 T00061083
                 54000 =
2018-11-15 08:53 METAR KFRG 151353Z 07009KT 10SM CLR 00/M09 A3055 RMK AO2 SLP345 T00001089 =
2018-11-15 07:53 METAR KFRG 151253Z 05007KT 10SM CLR M01/M10 A3056 RMK AO2 SLP350 T10061100 =
2018-11-15 06:53 METAR KFRG 151153Z 07005KT 10SM CLR M01/M11 A3056 RMK AO2 SLP348 T10111106 11011
                 21011 58007 =
2018-11-15 05:53 METAR KFRG 151053Z AUTO 07004KT 10SM CLR M01/M08 A3056 RMK AO2 SLP350 T10111083
                 =
2018-11-15 04:53 METAR KFRG 150953Z AUTO 05004KT 10SM CLR M01/M09 A3058 RMK AO2 SLP356 T10111094
                 =
2018-11-15 03:53 METAR KFRG 150853Z AUTO 02007KT 10SM CLR M01/M09 A3058 RMK AO2 SLP355 T10111094
                 58006 =
2018-11-15 02:53 METAR KFRG 150753Z AUTO 03006KT 10SM CLR M01/M10 A3060 RMK AO2 SLP362 T10111100
                 =
2018-11-15 01:53 METAR KFRG 150653Z AUTO 01007KT 10SM CLR M01/M11 A3058 RMK AO2 SLP356 T10111106
                 =
2018-11-15 00:53 METAR KFRG 150553Z AUTO 02007KT 10SM CLR M01/M11 A3060 RMK AO2 SLP362 T10111111
                 10011 21011 51007 =
2018-11-14 23:53 METAR KFRG 150453Z AUTO 02008KT 10SM CLR M01/M11 A3060 RMK AO2 SLP361 T10111111
                 400561011 =
2018-11-14 22:53 METAR KFRG 150353Z AUTO 03009KT 10SM CLR M01/M11 A3059 RMK AO2 SLP360 T10061111
                 =
2018-11-14 21:53 METAR KFRG 150253Z 36010KT 10SM CLR 00/M11 A3058 RMK AO2 SLP355 T00001106 53018
                 =
2018-11-14 20:53 METAR KFRG 150153Z 01010KT 10SM CLR 00/M10 A3055 RMK AO2 SLP346 T00001100 =

Support USWX by starting your Amazon purchase here.